PWSweather.com
Personal Weather Stations
Station Observations
MARRWS
Allansford VictoriaAU 3277

Allansford VictoriaAU 3277

Lat: -38.4003683814149, Lon: 142.569826841354

Elevation: 36

Station Type: Fine Offset X7062

http://home.vicnet.net.au/~marr/Weather/

Latest ConditionsUpdated 11:00:01 AM GMT+10:10 Sunday, Feb 7, 2016
Currently Today's Max Today's Min Today's Average
Temperature 80.2°F26.8°C 80.2°F26.8°C 60.4°F15.8°C 66.9°F19.4°C
Dew Point 66.1°F18.9°C 70.3°F21.3°C 59.0°F15.0°C 63.7°F17.6°C
Winds 2.7 mph S4.3 kmh S 3.5 mph SSW5.6 kmh SSW - 1.1 mph 1.8 kmh
Wind Gusts 8.3 mph13.4 kmh 8.3 mph13.4 kmh - -
Humidity 62% 100% 62% 90%
Pressure 30.11 in1019.6 mb 30.11 in1019.6 mb 30.01 in1016.3 mb -
Precipitation - 0.01 in0.3 mm - -
Hour Temp Dew Point Humidity Winds Wind Gusts Pressure Precip Precip Rate Daily Precip Total
11:00 AM 80.2°F26.8°C 66.1°F18.9°C 62% 2.7 mph S4.3 kmh S 8.3 mph13.4 kmh 30.11 in1019.6 mb 0.00 in0.0 mm 0.00 in0.0 mm 0.01 in0.3 mm
10:50 AM 76.8°F24.9°C 64.6°F18.1°C 66% 3.5 mph SSW5.6 kmh SSW 8.3 mph13.4 kmh 30.11 in1019.6 mb 0.00 in0.0 mm 0.00 in0.0 mm 0.01 in0.3 mm
10:40 AM 76.5°F24.7°C 63.9°F17.7°C 65% 3.1 mph WSW5.0 kmh WSW 7.6 mph12.2 kmh 30.10 in1019.3 mb 0.00 in0.0 mm 0.00 in0.0 mm 0.01 in0.3 mm
10:30 AM 77.2°F25.1°C 64.1°F17.8°C 64% 2.3 mph S3.7 kmh S 7.6 mph12.2 kmh 30.10 in1019.3 mb 0.00 in0.0 mm 0.00 in0.0 mm 0.01 in0.3 mm
10:20 AM 79.0°F26.1°C 65.4°F18.6°C 63% 2.6 mph S4.2 kmh S 6.9 mph11.1 kmh 30.10 in1019.3 mb 0.00 in0.0 mm 0.00 in0.0 mm 0.01 in0.3 mm
10:10 AM 78.4°F25.8°C 65.7°F18.7°C 65% 2.6 mph SSW4.2 kmh SSW 7.6 mph12.2 kmh 30.11 in1019.6 mb 0.00 in0.0 mm 0.00 in0.0 mm 0.01 in0.3 mm
10:00 AM 76.8°F24.9°C 65.5°F18.6°C 68% 2.7 mph SW4.3 kmh SW 6.9 mph11.1 kmh 30.11 in1019.6 mb 0.00 in0.0 mm 0.00 in0.0 mm 0.01 in0.3 mm
09:50 AM 76.6°F24.8°C 65.3°F18.5°C 68% 2.0 mph SW3.2 kmh SW 6.0 mph9.7 kmh 30.11 in1019.6 mb 0.00 in0.0 mm 0.00 in0.0 mm 0.01 in0.3 mm
09:40 AM 75.4°F24.1°C 65.0°F18.3°C 70% 2.7 mph SW4.3 kmh SW 7.6 mph12.2 kmh 30.11 in1019.6 mb 0.00 in0.0 mm 0.00 in0.0 mm 0.01 in0.3 mm
09:30 AM 75.2°F24.0°C 64.8°F18.2°C 70% 2.2 mph SW3.5 kmh SW 5.4 mph8.7 kmh 30.11 in1019.6 mb 0.00 in0.0 mm 0.00 in0.0 mm 0.01 in0.3 mm
09:20 AM 74.3°F23.5°C 64.7°F18.2°C 72% 2.9 mph SW4.7 kmh SW 8.3 mph13.4 kmh 30.11 in1019.6 mb 0.00 in0.0 mm 0.00 in0.0 mm 0.01 in0.3 mm
09:10 AM 76.3°F24.6°C 66.2°F19.0°C 71% 2.4 mph S3.9 kmh S 6.0 mph9.7 kmh 30.11 in1019.6 mb 0.00 in0.0 mm 0.00 in0.0 mm 0.01 in0.3 mm
09:00 AM 74.8°F23.8°C 65.6°F18.7°C 73% 2.0 mph S3.2 kmh S 5.4 mph8.7 kmh 30.10 in1019.3 mb 0.00 in0.0 mm 0.00 in0.0 mm 0.01 in0.3 mm
08:50 AM 75.4°F24.1°C 65.8°F18.8°C 72% 2.0 mph S3.2 kmh S 6.9 mph11.1 kmh 30.09 in1019.0 mb 0.00 in0.0 mm 0.00 in0.0 mm 0.01 in0.3 mm
08:40 AM 75.4°F24.1°C 66.9°F19.4°C 75% 1.7 mph SSE2.7 kmh SSE 5.4 mph8.7 kmh 30.10 in1019.3 mb 0.00 in0.0 mm 0.00 in0.0 mm 0.01 in0.3 mm
08:30 AM 73.9°F23.3°C 67.4°F19.7°C 80% 2.0 mph SW3.2 kmh SW 6.0 mph9.7 kmh 30.10 in1019.3 mb 0.00 in0.0 mm 0.00 in0.0 mm 0.01 in0.3 mm
08:20 AM 74.7°F23.7°C 69.5°F20.8°C 84% 1.3 mph SE2.1 kmh SE 4.5 mph7.2 kmh 30.09 in1019.0 mb 0.00 in0.0 mm 0.00 in0.0 mm 0.01 in0.3 mm
08:10 AM 73.4°F23.0°C 69.7°F20.9°C 88% 1.4 mph S2.3 kmh S 4.5 mph7.2 kmh 30.09 in1019.0 mb 0.00 in0.0 mm 0.00 in0.0 mm 0.01 in0.3 mm
08:00 AM 71.8°F22.1°C 68.7°F20.4°C 90% 1.0 mph SE1.6 kmh SE 3.8 mph6.1 kmh 30.09 in1019.0 mb 0.00 in0.0 mm 0.00 in0.0 mm 0.01 in0.3 mm
07:50 AM 71.2°F21.8°C 69.1°F20.6°C 93% 1.8 mph SW2.9 kmh SW 3.8 mph6.1 kmh 30.09 in1019.0 mb 0.00 in0.0 mm 0.00 in0.0 mm 0.01 in0.3 mm
07:40 AM 71.4°F21.9°C 70.3°F21.3°C 96% 1.2 mph S1.9 kmh S 3.8 mph6.1 kmh 30.09 in1019.0 mb 0.00 in0.0 mm 0.00 in0.0 mm 0.01 in0.3 mm
07:30 AM 69.8°F21.0°C 68.6°F20.3°C 96% 1.0 mph S1.6 kmh S 3.1 mph5.0 kmh 30.09 in1019.0 mb 0.00 in0.0 mm 0.00 in0.0 mm 0.01 in0.3 mm
07:20 AM 69.1°F20.6°C 69.1°F20.6°C 100% 0.3 mph S0.5 kmh S 2.2 mph3.5 kmh 30.08 in1018.6 mb 0.00 in0.0 mm 0.00 in0.0 mm 0.01 in0.3 mm
07:10 AM 67.6°F19.8°C 67.4°F19.7°C 99% 0.5 mph SSW0.8 kmh SSW 3.1 mph5.0 kmh 30.07 in1018.3 mb 0.00 in0.0 mm 0.00 in0.0 mm 0.01 in0.3 mm
07:00 AM 66.6°F19.2°C 66.3°F19.1°C 99% 0.6 mph SW1.0 kmh SW 2.2 mph3.5 kmh 30.07 in1018.3 mb 0.00 in0.0 mm 0.00 in0.0 mm 0.01 in0.3 mm
06:50 AM 65.8°F18.8°C 65.6°F18.7°C 99% 0.2 mph SW0.3 kmh SW 1.6 mph2.6 kmh 30.08 in1018.6 mb 0.00 in0.0 mm 0.00 in0.0 mm 0.01 in0.3 mm
06:40 AM 64.9°F18.3°C 64.7°F18.2°C 99% Calm Calm 0.7 mph1.1 kmh 30.07 in1018.3 mb 0.00 in0.0 mm 0.00 in0.0 mm 0.01 in0.3 mm
06:30 AM 64.2°F17.9°C 63.4°F17.4°C 97% 0.1 mph SW0.2 kmh SW 1.6 mph2.6 kmh 30.07 in1018.3 mb 0.00 in0.0 mm 0.00 in0.0 mm 0.01 in0.3 mm
06:20 AM 64.0°F17.8°C 63.2°F17.3°C 97% 0.1 mph SW0.2 kmh SW 1.6 mph2.6 kmh 30.07 in1018.3 mb 0.00 in0.0 mm 0.00 in0.0 mm 0.01 in0.3 mm
06:10 AM 63.9°F17.7°C 63.0°F17.2°C 97% 0.2 mph W0.3 kmh W 3.1 mph5.0 kmh 30.06 in1017.9 mb 0.00 in0.0 mm 0.00 in0.0 mm 0.01 in0.3 mm
06:00 AM 63.9°F17.7°C 63.0°F17.2°C 97% 0.5 mph S0.8 kmh S 3.1 mph5.0 kmh 30.06 in1017.9 mb 0.00 in0.0 mm 0.00 in0.0 mm 0.01 in0.3 mm
05:50 AM 64.0°F17.8°C 63.2°F17.3°C 97% 1.0 mph SW1.6 kmh SW 3.1 mph5.0 kmh 30.06 in1017.9 mb 0.00 in0.0 mm 0.00 in0.0 mm 0.01 in0.3 mm
05:40 AM 64.0°F17.8°C 63.2°F17.3°C 97% 1.0 mph SW1.6 kmh SW 3.8 mph6.1 kmh 30.06 in1017.9 mb 0.00 in0.0 mm 0.00 in0.0 mm 0.01 in0.3 mm
05:30 AM 63.7°F17.6°C 62.8°F17.1°C 97% 0.4 mph WSW0.6 kmh WSW 4.5 mph7.2 kmh 30.05 in1017.6 mb 0.00 in0.0 mm 0.00 in0.0 mm 0.01 in0.3 mm
05:20 AM 63.3°F17.4°C 62.5°F16.9°C 97% 0.7 mph WSW1.1 kmh WSW 3.1 mph5.0 kmh 30.05 in1017.6 mb 0.00 in0.0 mm 0.00 in0.0 mm 0.01 in0.3 mm
05:10 AM 62.8°F17.1°C 61.9°F16.6°C 97% 0.9 mph SW1.4 kmh SW 3.1 mph5.0 kmh 30.05 in1017.6 mb 0.00 in0.0 mm 0.00 in0.0 mm 0.01 in0.3 mm
05:00 AM 62.8°F17.1°C 61.9°F16.6°C 97% 0.8 mph SW1.3 kmh SW 3.1 mph5.0 kmh 30.05 in1017.6 mb 0.00 in0.0 mm 0.00 in0.0 mm 0.01 in0.3 mm
04:50 AM 62.6°F17.0°C 61.8°F16.6°C 97% 0.4 mph WSW0.6 kmh WSW 2.2 mph3.5 kmh 30.04 in1017.3 mb 0.00 in0.0 mm 0.00 in0.0 mm 0.01 in0.3 mm
04:40 AM 62.4°F16.9°C 62.4°F16.9°C 100% 0.5 mph WSW0.8 kmh WSW 3.1 mph5.0 kmh 30.04 in1017.3 mb 0.00 in0.0 mm 0.00 in0.0 mm 0.01 in0.3 mm
04:30 AM 62.2°F16.8°C 62.3°F16.8°C 100% 0.9 mph SW1.4 kmh SW 3.8 mph6.1 kmh 30.03 in1016.9 mb 0.01 in0.3 mm 0.00 in0.0 mm 0.01 in0.3 mm
04:20 AM 62.2°F16.8°C 62.3°F16.8°C 100% 0.4 mph WSW0.6 kmh WSW 3.1 mph5.0 kmh 30.03 in1016.9 mb 0.01 in0.3 mm 0.00 in0.0 mm 0.01 in0.3 mm
04:10 AM 62.2°F16.8°C 62.3°F16.8°C 100% Calm Calm 0.7 mph1.1 kmh 30.02 in1016.6 mb 0.01 in0.3 mm 0.00 in0.0 mm 0.01 in0.3 mm
04:00 AM 62.2°F16.8°C 62.3°F16.8°C 100% 0.2 mph ENE0.3 kmh ENE 2.2 mph3.5 kmh 30.01 in1016.3 mb 0.01 in0.3 mm 0.00 in0.0 mm 0.01 in0.3 mm
03:50 AM 62.2°F16.8°C 62.3°F16.8°C 100% 0.6 mph ENE1.0 kmh ENE 2.2 mph3.5 kmh 30.01 in1016.3 mb 0.01 in0.3 mm 0.00 in0.0 mm 0.01 in0.3 mm
03:40 AM 62.2°F16.8°C 62.3°F16.8°C 100% 0.3 mph NE0.5 kmh NE 2.2 mph3.5 kmh 30.01 in1016.3 mb 0.01 in0.3 mm 0.06 in1.5 mm 0.01 in0.3 mm
03:30 AM 62.2°F16.8°C 62.3°F16.8°C 100% 0.2 mph NE0.3 kmh NE 2.2 mph3.5 kmh 30.01 in1016.3 mb 0.00 in0.0 mm 0.00 in0.0 mm 0.00 in0.0 mm
03:20 AM 62.1°F16.7°C 62.1°F16.7°C 100% 0.3 mph NNE0.5 kmh NNE 2.2 mph3.5 kmh 30.01 in1016.3 mb 0.00 in0.0 mm 0.00 in0.0 mm 0.00 in0.0 mm
03:10 AM 62.1°F16.7°C 62.1°F16.7°C 100% 0.1 mph E0.2 kmh E 3.1 mph5.0 kmh 30.01 in1016.3 mb 0.00 in0.0 mm 0.00 in0.0 mm 0.00 in0.0 mm
03:00 AM 62.1°F16.7°C 62.1°F16.7°C 100% 0.5 mph NE0.8 kmh NE 3.1 mph5.0 kmh 30.01 in1016.3 mb 0.00 in0.0 mm 0.00 in0.0 mm 0.00 in0.0 mm
02:50 AM 62.1°F16.7°C 62.1°F16.7°C 100% 0.6 mph NE1.0 kmh NE 3.8 mph6.1 kmh 30.01 in1016.3 mb 0.00 in0.0 mm 0.00 in0.0 mm 0.00 in0.0 mm
02:40 AM 62.1°F16.7°C 62.1°F16.7°C 100% 1.3 mph NE2.1 kmh NE 3.8 mph6.1 kmh 30.01 in1016.3 mb 0.00 in0.0 mm 0.00 in0.0 mm 0.00 in0.0 mm
02:30 AM 62.1°F16.7°C 62.1°F16.7°C 100% 0.8 mph NE1.3 kmh NE 3.1 mph5.0 kmh 30.01 in1016.3 mb 0.00 in0.0 mm 0.00 in0.0 mm 0.00 in0.0 mm
02:20 AM 62.2°F16.8°C 62.3°F16.8°C 100% 0.5 mph ENE0.8 kmh ENE 3.1 mph5.0 kmh 30.01 in1016.3 mb 0.00 in0.0 mm 0.00 in0.0 mm 0.00 in0.0 mm
02:10 AM 62.8°F17.1°C 61.9°F16.6°C 97% 0.4 mph SW0.6 kmh SW 2.2 mph3.5 kmh 30.02 in1016.6 mb 0.00 in0.0 mm 0.00 in0.0 mm 0.00 in0.0 mm
02:00 AM 62.8°F17.1°C 61.9°F16.6°C 97% 0.2 mph SW0.3 kmh SW 2.2 mph3.5 kmh 30.02 in1016.6 mb 0.00 in0.0 mm 0.00 in0.0 mm 0.00 in0.0 mm
01:50 AM 62.8°F17.1°C 61.9°F16.6°C 97% 1.0 mph W1.6 kmh W 3.1 mph5.0 kmh 30.02 in1016.6 mb 0.00 in0.0 mm 0.00 in0.0 mm 0.00 in0.0 mm
01:40 AM 63.1°F17.3°C 62.3°F16.8°C 97% 0.8 mph WSW1.3 kmh WSW 3.1 mph5.0 kmh 30.01 in1016.3 mb 0.00 in0.0 mm 0.00 in0.0 mm 0.00 in0.0 mm
01:30 AM 63.1°F17.3°C 62.3°F16.8°C 97% 1.9 mph WSW3.1 kmh WSW 4.5 mph7.2 kmh 30.02 in1016.6 mb 0.00 in0.0 mm 0.00 in0.0 mm 0.00 in0.0 mm
01:20 AM 62.8°F17.1°C 61.9°F16.6°C 97% 1.9 mph WSW3.1 kmh WSW 4.5 mph7.2 kmh 30.02 in1016.6 mb 0.00 in0.0 mm 0.00 in0.0 mm 0.00 in0.0 mm
01:10 AM 62.8°F17.1°C 61.9°F16.6°C 97% 2.4 mph WSW3.9 kmh WSW 4.5 mph7.2 kmh 30.03 in1016.9 mb 0.00 in0.0 mm 0.00 in0.0 mm 0.00 in0.0 mm
01:00 AM 61.2°F16.2°C 60.0°F15.6°C 96% 0.6 mph W1.0 kmh W 2.2 mph3.5 kmh 30.02 in1016.6 mb 0.00 in0.0 mm 0.00 in0.0 mm 0.00 in0.0 mm
12:50 AM 60.4°F15.8°C 59.3°F15.2°C 96% Calm Calm 0.7 mph1.1 kmh 30.03 in1016.9 mb 0.00 in0.0 mm 0.00 in0.0 mm 0.00 in0.0 mm
12:40 AM 60.6°F15.9°C 59.5°F15.3°C 96% 0.2 mph W0.3 kmh W 1.6 mph2.6 kmh 30.03 in1016.9 mb 0.00 in0.0 mm 0.00 in0.0 mm 0.00 in0.0 mm
12:30 AM 60.8°F16.0°C 59.1°F15.1°C 94% Calm Calm 0.7 mph1.1 kmh 30.04 in1017.3 mb 0.00 in0.0 mm 0.00 in0.0 mm 0.00 in0.0 mm
12:20 AM 60.4°F15.8°C 59.0°F15.0°C 95% 0.1 mph NW0.2 kmh NW 1.6 mph2.6 kmh 30.03 in1016.9 mb 0.00 in0.0 mm 0.00 in0.0 mm 0.00 in0.0 mm
12:10 AM 60.8°F16.0°C 59.1°F15.1°C 94% Calm Calm 1.6 mph2.6 kmh 30.03 in1016.9 mb 0.00 in0.0 mm 0.00 in0.0 mm 0.00 in0.0 mm
12:00 AM 60.6°F15.9°C 59.2°F15.1°C 95% 0.3 mph W0.5 kmh W 2.2 mph3.5 kmh 30.03 in1016.9 mb 0.00 in0.0 mm 0.00 in0.0 mm 0.00 in0.0 mm